Terminal Aerodrome Forecast
Issued by NWS

Home | Current Version | Previous Version | Text Only | Print | Product List | Glossary On
Versions: 1 2 3 4 5 6 7 8 9 10 11 12 13 14 15 16 17 18 19 20
000
FTUS46 KLOX 061753 CCA
TAFLGB
TAF COR
KLGB 061753Z 0618/0718 21004KT P6SM OVC015
     FM062100 21007KT P6SM SCT025
     FM070000 29008KT P6SM SKC
     FM070400 VRB03KT P6SM OVC015=

USA.gov is the U.S. government's official web portal to all federal, state and local government web resources and services.